createdAt,value
2022-10-10T00:00:49.229Z,6.97
2022-10-10T00:03:16.339Z,7.13
2022-10-10T00:05:42.874Z,7.13
2022-10-10T00:08:09.608Z,6.38
2022-10-10T00:10:37.554Z,7.55
2022-10-10T00:13:06.407Z,7.05
2022-10-10T00:15:32.915Z,7.32
2022-10-10T00:17:59.549Z,6.07
2022-10-10T00:20:25.941Z,6.90
2022-10-10T00:22:52.725Z,6.30
2022-10-10T00:25:19.452Z,6.85
2022-10-10T00:27:45.937Z,6.22
2022-10-10T00:30:12.491Z,6.57
2022-10-10T00:32:39.367Z,5.97
2022-10-10T00:35:06.523Z,7.20
2022-10-10T00:37:32.886Z,6.63
2022-10-10T00:40:01.030Z,6.65
2022-10-10T00:42:27.477Z,7.05
2022-10-10T00:45:21.827Z,7.10
2022-10-10T00:47:51.973Z,7.15
2022-10-10T00:50:21.045Z,7.20
2022-10-10T00:52:47.844Z,6.90
2022-10-10T00:55:15.525Z,7.07
2022-10-10T00:57:42.218Z,6.82
2022-10-10T01:00:10.642Z,7.47
2022-10-10T01:02:37.490Z,7.20
2022-10-10T01:05:06.840Z,6.57
2022-10-10T01:07:33.692Z,7.00
2022-10-10T01:10:07.096Z,7.07
2022-10-10T01:12:55.380Z,6.72
2022-10-10T01:15:27.813Z,6.20
2022-10-10T01:18:22.890Z,6.57
2022-10-10T01:21:15.264Z,6.75
2022-10-10T01:23:56.714Z,6.72
2022-10-10T01:27:07.276Z,6.22
2022-10-10T01:29:42.709Z,6.47
2022-10-10T01:32:19.931Z,6.63
2022-10-10T01:35:07.642Z,6.30
2022-10-10T01:37:52.683Z,6.38
2022-10-10T01:40:27.350Z,7.03
2022-10-10T01:43:03.368Z,7.30
2022-10-10T01:45:30.541Z,6.45
2022-10-10T01:48:02.016Z,6.72
2022-10-10T01:50:33.299Z,6.07
2022-10-10T01:53:17.273Z,6.47
2022-10-10T01:55:52.481Z,6.85
2022-10-10T01:58:36.280Z,6.97
2022-10-10T02:01:13.893Z,7.20
2022-10-10T02:03:47.854Z,6.78
2022-10-10T02:06:30.001Z,7.95
2022-10-10T02:09:02.275Z,10.48
2022-10-10T02:11:36.257Z,7.78
2022-10-10T02:14:16.354Z,7.30
2022-10-10T02:16:47.399Z,8.07
2022-10-10T02:19:18.824Z,8.10
2022-10-10T02:21:50.462Z,7.00
2022-10-10T02:24:18.234Z,8.23
2022-10-10T02:26:52.371Z,7.25
2022-10-10T02:29:23.713Z,7.07
2022-10-10T02:32:23.635Z,6.80
2022-10-10T02:34:55.552Z,7.47
2022-10-10T02:37:23.177Z,7.45
2022-10-10T02:39:55.214Z,7.80
2022-10-10T02:42:23.899Z,7.70
2022-10-10T02:44:51.339Z,7.57
2022-10-10T02:47:21.615Z,7.47
2022-10-10T02:49:48.349Z,6.72
2022-10-10T02:52:17.387Z,6.72
2022-10-10T02:54:44.261Z,7.28
2022-10-10T02:57:11.767Z,7.63
2022-10-10T02:59:38.211Z,7.63
2022-10-10T03:02:04.833Z,6.35
2022-10-10T03:04:31.295Z,7.53
2022-10-10T03:06:57.880Z,6.75
2022-10-10T03:09:25.696Z,7.13
2022-10-10T03:11:53.355Z,7.55
2022-10-10T03:14:20.044Z,7.20
2022-10-10T03:16:46.600Z,7.03
2022-10-10T03:19:13.069Z,8.55
2022-10-10T03:21:39.450Z,7.30
2022-10-10T03:24:05.916Z,8.52
2022-10-10T03:26:33.836Z,11.15
2022-10-10T03:29:02.067Z,12.38
2022-10-10T03:31:28.954Z,10.32
2022-10-10T03:33:55.461Z,10.07
2022-10-10T03:36:23.732Z,10.48
2022-10-10T03:38:50.921Z,10.45
2022-10-10T03:41:17.443Z,9.07
2022-10-10T03:43:45.414Z,7.93
2022-10-10T03:46:15.948Z,7.70
2022-10-10T03:48:45.062Z,7.20
2022-10-10T03:51:14.897Z,7.53
2022-10-10T03:53:41.538Z,9.13
2022-10-10T03:56:08.260Z,9.07
2022-10-10T03:58:34.744Z,10.32
2022-10-10T04:01:03.799Z,8.98
2022-10-10T04:03:31.538Z,7.55
2022-10-10T04:05:58.462Z,7.75
2022-10-10T04:08:24.917Z,7.75
2022-10-10T04:10:52.878Z,7.97
2022-10-10T04:13:20.625Z,6.65
2022-10-10T04:15:53.876Z,6.65
2022-10-10T04:18:20.781Z,6.93
2022-10-10T04:20:47.476Z,6.72
2022-10-10T04:23:14.030Z,7.60
2022-10-10T04:25:45.079Z,7.47
2022-10-10T04:28:13.727Z,7.65
2022-10-10T04:30:40.483Z,7.43
2022-10-10T04:33:08.819Z,6.43
2022-10-10T04:35:37.302Z,7.03
2022-10-10T04:38:04.399Z,7.88
2022-10-10T04:40:30.844Z,6.65
2022-10-10T04:42:57.385Z,7.72
2022-10-10T04:45:23.857Z,7.93
2022-10-10T04:47:50.335Z,9.23
2022-10-10T04:50:19.647Z,8.00
2022-10-10T04:52:46.033Z,7.57
2022-10-10T04:55:13.609Z,7.95
2022-10-10T04:57:40.052Z,8.18
2022-10-10T05:00:10.308Z,8.18
2022-10-10T05:02:36.765Z,8.10
2022-10-10T05:05:05.636Z,7.43
2022-10-10T05:07:32.125Z,8.15
2022-10-10T05:09:58.657Z,7.63
2022-10-10T05:12:32.219Z,8.52
2022-10-10T05:14:58.761Z,8.45
2022-10-10T05:17:25.154Z,8.52
2022-10-10T05:19:52.073Z,8.38
2022-10-10T05:22:21.296Z,8.65
2022-10-10T05:24:49.484Z,10.18
2022-10-10T05:27:19.317Z,8.85
2022-10-10T05:29:45.815Z,9.88
2022-10-10T05:32:12.361Z,9.25
2022-10-10T05:34:38.994Z,8.88
2022-10-10T05:37:05.675Z,8.65
2022-10-10T05:39:32.289Z,9.00
2022-10-10T05:41:58.676Z,9.13
2022-10-10T05:44:25.176Z,8.77
2022-10-10T05:46:51.581Z,9.10
2022-10-10T05:49:18.473Z,9.15
2022-10-10T05:51:45.072Z,9.07
2022-10-10T05:54:11.518Z,8.23
2022-10-10T05:56:38.039Z,8.48
2022-10-10T05:59:05.965Z,8.15
2022-10-10T06:01:32.458Z,7.93
2022-10-10T06:04:01.202Z,9.32
2022-10-10T06:06:27.741Z,9.52
2022-10-10T06:08:54.344Z,8.48
2022-10-10T06:11:20.931Z,8.75
2022-10-10T06:13:47.594Z,7.80
2022-10-10T06:16:14.046Z,8.88
2022-10-10T06:18:41.968Z,8.00
2022-10-10T06:21:08.432Z,9.38
2022-10-10T06:23:35.199Z,7.35
2022-10-10T06:26:01.705Z,8.38
2022-10-10T06:28:28.345Z,8.57
2022-10-10T06:30:58.503Z,8.80
2022-10-10T06:33:24.935Z,8.05
2022-10-10T06:35:51.581Z,8.77
2022-10-10T06:38:18.248Z,7.97
2022-10-10T06:40:45.451Z,8.07
2022-10-10T06:43:13.860Z,8.15
2022-10-10T06:45:46.170Z,7.90
2022-10-10T06:48:15.730Z,8.63
2022-10-10T06:50:42.279Z,8.75
2022-10-10T06:53:09.211Z,8.98
2022-10-10T06:55:35.710Z,8.43
2022-10-10T06:58:02.809Z,9.02
2022-10-10T07:00:29.348Z,7.72
2022-10-10T07:02:56.037Z,8.13
2022-10-10T07:05:22.738Z,8.68
2022-10-10T07:07:52.392Z,8.50
2022-10-10T07:10:19.069Z,9.13
2022-10-10T07:12:45.912Z,8.60
2022-10-10T07:15:12.937Z,8.90
2022-10-10T07:17:39.395Z,8.57
2022-10-10T07:20:06.152Z,8.88
2022-10-10T07:22:32.536Z,8.50
2022-10-10T07:24:59.287Z,9.68
2022-10-10T07:27:25.650Z,8.57
2022-10-10T07:29:52.011Z,7.72
2022-10-10T07:32:18.625Z,9.18
2022-10-10T07:34:47.613Z,8.25
2022-10-10T07:37:14.104Z,8.73
2022-10-10T07:39:40.649Z,8.93
2022-10-10T07:42:07.049Z,9.38
2022-10-10T07:44:34.740Z,9.70
2022-10-10T07:47:02.725Z,8.48
2022-10-10T07:49:29.294Z,8.18
2022-10-10T07:51:58.953Z,8.88
2022-10-10T07:54:29.510Z,7.53
2022-10-10T07:56:56.614Z,8.80
2022-10-10T07:59:24.134Z,8.75
2022-10-10T08:01:51.465Z,8.15
2022-10-10T08:04:18.665Z,8.40
2022-10-10T08:06:45.037Z,9.52
2022-10-10T08:09:12.295Z,9.27
2022-10-10T08:11:39.371Z,8.40
2022-10-10T08:14:06.013Z,8.82
2022-10-10T08:16:32.359Z,7.32
2022-10-10T08:18:59.891Z,8.45
2022-10-10T08:21:26.488Z,9.02
2022-10-10T08:23:53.024Z,10.15
2022-10-10T08:26:20.038Z,8.40
2022-10-10T08:28:49.187Z,7.88
2022-10-10T08:31:19.796Z,8.90
2022-10-10T08:33:47.427Z,8.80
2022-10-10T08:36:28.089Z,7.55
2022-10-10T08:38:56.029Z,7.65
2022-10-10T08:41:52.381Z,8.70
2022-10-10T08:44:25.057Z,7.93
2022-10-10T08:47:02.908Z,8.85
2022-10-10T08:49:40.991Z,8.07
2022-10-10T08:52:35.488Z,9.07
2022-10-10T08:55:08.040Z,7.75
2022-10-10T08:57:56.126Z,8.40
2022-10-10T09:00:24.770Z,8.32
2022-10-10T09:02:57.776Z,7.38
2022-10-10T09:05:52.963Z,9.05
2022-10-10T09:08:35.306Z,8.40
2022-10-10T09:11:22.606Z,8.38
2022-10-10T09:13:55.077Z,7.70
2022-10-10T09:16:30.480Z,6.30
2022-10-10T09:19:17.543Z,6.63
2022-10-10T09:21:45.334Z,6.95
2022-10-10T09:24:24.057Z,6.90
2022-10-10T09:26:58.994Z,7.90
2022-10-10T09:29:47.848Z,8.00
2022-10-10T09:32:17.779Z,7.97
2022-10-10T09:35:06.086Z,8.25
2022-10-10T09:37:53.433Z,7.95
2022-10-10T09:40:28.508Z,7.40
2022-10-10T09:42:56.531Z,7.53
2022-10-10T09:45:34.560Z,8.95
2022-10-10T09:48:01.075Z,7.82
2022-10-10T09:50:27.808Z,7.07
2022-10-10T09:52:56.677Z,7.30
2022-10-10T09:55:35.525Z,6.95
2022-10-10T09:58:22.730Z,7.35
2022-10-10T10:00:49.876Z,7.82
2022-10-10T10:03:19.372Z,6.85
2022-10-10T10:05:56.481Z,7.38
2022-10-10T10:08:27.326Z,7.97
2022-10-10T10:10:54.403Z,8.20
2022-10-10T10:13:25.613Z,7.10
2022-10-10T10:16:01.803Z,7.20
2022-10-10T10:18:31.716Z,7.20
2022-10-10T10:21:09.501Z,7.55
2022-10-10T10:23:42.237Z,6.57
2022-10-10T10:26:40.952Z,7.25
2022-10-10T10:29:30.775Z,7.65
2022-10-10T10:32:34.966Z,6.93
2022-10-10T10:35:09.974Z,6.13
2022-10-10T10:41:09.741Z,6.78
2022-10-10T10:43:51.519Z,6.47
2022-10-10T10:46:54.629Z,6.93
2022-10-10T10:49:29.485Z,6.72
2022-10-10T10:52:14.723Z,6.20
2022-10-10T10:55:00.809Z,6.28
2022-10-10T10:58:10.459Z,6.18
2022-10-10T11:01:23.156Z,5.45
2022-10-10T11:05:16.432Z,5.75
2022-10-10T11:07:18.888Z,5.40
2022-10-10T11:09:55.109Z,4.60
2022-10-10T11:13:11.398Z,5.25
2022-10-10T11:16:07.187Z,5.22
2022-10-10T11:18:49.324Z,5.07
2022-10-10T11:21:20.745Z,4.85
2022-10-10T11:23:55.942Z,4.53
2022-10-10T11:26:28.347Z,4.32
2022-10-10T11:29:02.879Z,4.47
2022-10-10T11:31:57.605Z,4.78
2022-10-10T11:34:38.811Z,4.45
2022-10-10T11:37:13.589Z,4.10
2022-10-10T11:40:03.878Z,3.72
2022-10-10T11:42:38.679Z,3.65
2022-10-10T11:45:31.376Z,3.90
2022-10-10T11:48:40.105Z,3.83
2022-10-10T11:51:17.894Z,3.92
2022-10-10T11:53:48.041Z,4.10
2022-10-10T11:56:37.844Z,4.28
2022-10-10T11:59:24.235Z,3.78
2022-10-10T12:01:55.569Z,3.45
2022-10-10T12:04:23.006Z,3.50
2022-10-10T12:07:13.902Z,3.55
2022-10-10T12:10:06.434Z,3.58
2022-10-10T12:12:43.463Z,3.80
2022-10-10T12:15:17.726Z,3.60
2022-10-10T12:17:46.877Z,3.15
2022-10-10T12:20:25.571Z,3.40
2022-10-10T12:23:23.478Z,3.25
2022-10-10T12:25:49.928Z,3.67
2022-10-10T12:28:16.311Z,3.88
2022-10-10T12:30:58.992Z,3.13
2022-10-10T12:33:31.338Z,3.50
2022-10-10T12:36:17.884Z,3.70
2022-10-10T12:39:02.876Z,3.97
2022-10-10T12:41:48.347Z,3.97
2022-10-10T12:44:16.731Z,3.03
2022-10-10T12:46:43.444Z,3.28
2022-10-10T12:49:24.730Z,2.85
2022-10-10T12:52:12.785Z,3.75
2022-10-10T12:54:44.349Z,4.57
2022-10-10T12:57:25.907Z,4.32
2022-10-10T12:59:53.018Z,3.50
2022-10-10T13:02:25.321Z,3.15
2022-10-10T13:04:56.107Z,3.70
2022-10-10T13:07:24.179Z,3.17
2022-10-10T13:09:53.206Z,4.00
2022-10-10T13:12:29.570Z,3.47
2022-10-10T13:14:56.922Z,3.45
2022-10-10T13:17:51.277Z,3.17
2022-10-10T13:20:26.510Z,3.75
2022-10-10T13:22:53.225Z,3.67
2022-10-10T13:25:19.793Z,3.53
2022-10-10T13:27:46.411Z,3.25
2022-10-10T13:30:24.603Z,3.85
2022-10-10T13:32:53.835Z,3.33
2022-10-10T13:35:24.229Z,3.40
2022-10-10T13:40:25.644Z,3.88
2022-10-10T13:42:53.256Z,3.08
2022-10-10T13:45:27.907Z,3.55
2022-10-10T13:48:02.947Z,3.35
2022-10-10T13:50:35.886Z,2.97
2022-10-10T13:53:26.961Z,3.38
2022-10-10T13:55:59.211Z,2.75
2022-10-10T13:58:32.812Z,3.13
2022-10-10T14:01:02.870Z,4.00
2022-10-10T14:05:58.530Z,4.15
2022-10-10T14:08:34.068Z,2.95
2022-10-10T14:11:06.945Z,2.92
2022-10-10T14:13:36.559Z,3.38
2022-10-10T14:16:23.864Z,4.37
2022-10-10T14:18:50.581Z,4.18
2022-10-10T14:21:16.933Z,3.45
2022-10-10T14:23:43.424Z,3.60
2022-10-10T14:26:14.774Z,3.75
2022-10-10T14:28:41.400Z,3.58
2022-10-10T14:31:07.799Z,3.58
2022-10-10T14:33:34.298Z,3.92
2022-10-10T14:36:01.356Z,3.70
2022-10-10T14:38:28.336Z,4.20
2022-10-10T14:40:55.214Z,4.00
2022-10-10T14:43:21.716Z,4.03
2022-10-10T14:45:53.365Z,3.20
2022-10-10T14:48:23.387Z,3.45
2022-10-10T14:50:50.434Z,4.15
2022-10-10T14:53:17.986Z,3.25
2022-10-10T14:55:44.656Z,4.25
2022-10-10T14:58:19.814Z,3.58
2022-10-10T15:00:49.579Z,3.53
2022-10-10T15:03:16.094Z,4.07
2022-10-10T15:05:43.307Z,3.80
2022-10-10T15:08:13.524Z,3.50
2022-10-10T15:10:40.656Z,3.42
2022-10-10T15:13:07.033Z,3.83
2022-10-10T15:15:33.688Z,3.92
2022-10-10T15:18:01.060Z,3.92
2022-10-10T15:20:27.962Z,3.45
2022-10-10T15:22:54.368Z,3.00
2022-10-10T15:25:20.820Z,3.30
2022-10-10T15:27:47.165Z,4.03
2022-10-10T15:30:13.656Z,4.05
2022-10-10T15:32:45.687Z,4.10
2022-10-10T15:35:15.650Z,3.50
2022-10-10T15:37:42.785Z,4.07
2022-10-10T15:40:10.749Z,3.90
2022-10-10T15:42:37.616Z,3.53
2022-10-10T15:45:04.907Z,3.20
2022-10-10T15:47:32.177Z,3.58
2022-10-10T15:49:58.566Z,3.45
2022-10-10T15:52:24.947Z,3.72
2022-10-10T15:54:54.220Z,3.55
2022-10-10T15:57:21.139Z,3.70
2022-10-10T15:59:47.706Z,3.60
2022-10-10T16:02:14.726Z,5.43
2022-10-10T16:04:41.787Z,3.70
2022-10-10T16:07:26.851Z,4.10
2022-10-10T16:09:57.787Z,3.72
2022-10-10T16:12:24.483Z,2.80
2022-10-10T16:14:51.114Z,4.13
2022-10-10T16:17:22.196Z,4.30
2022-10-10T16:19:49.597Z,4.50
2022-10-10T16:22:16.390Z,4.15
2022-10-10T16:24:44.573Z,4.50
2022-10-10T16:27:26.996Z,5.10
2022-10-10T16:29:54.919Z,3.92
2022-10-10T16:32:21.415Z,3.42
2022-10-10T16:34:48.076Z,3.67
2022-10-10T16:37:14.556Z,4.00
2022-10-10T16:39:40.958Z,4.43
2022-10-10T16:42:07.428Z,4.03
2022-10-10T16:44:35.008Z,4.40
2022-10-10T16:47:01.510Z,4.82
2022-10-10T16:49:31.460Z,4.97
2022-10-10T16:51:58.585Z,4.78
2022-10-10T16:54:25.141Z,4.55
2022-10-10T16:56:54.604Z,4.25
2022-10-10T16:59:20.919Z,5.15
2022-10-10T17:01:47.585Z,5.60
2022-10-10T17:04:14.091Z,4.82
2022-10-10T17:06:40.612Z,5.82
2022-10-10T17:09:11.547Z,5.43
2022-10-10T17:11:38.150Z,4.60
2022-10-10T17:14:04.639Z,4.82
2022-10-10T17:19:20.276Z,6.32
2022-10-10T17:21:58.159Z,5.85
2022-10-10T17:24:24.816Z,4.97
2022-10-10T17:26:51.229Z,5.60
2022-10-10T17:29:17.626Z,6.00
2022-10-10T17:31:44.507Z,5.38
2022-10-10T17:34:11.206Z,5.82
2022-10-10T17:36:37.660Z,5.75
2022-10-10T17:39:04.330Z,5.53
2022-10-10T17:41:30.757Z,4.80
2022-10-10T17:43:57.387Z,5.18
2022-10-10T17:46:35.187Z,6.78
2022-10-10T17:49:07.797Z,8.48
2022-10-10T17:51:36.100Z,7.43
2022-10-10T17:54:03.671Z,6.75
2022-10-10T17:56:30.436Z,6.65
2022-10-10T17:58:56.878Z,6.75
2022-10-10T18:01:23.406Z,6.43
2022-10-10T18:03:49.936Z,7.18
2022-10-10T18:06:19.120Z,7.55
2022-10-10T18:08:50.773Z,5.90
2022-10-10T18:11:23.438Z,5.82
2022-10-10T18:13:50.567Z,6.15
2022-10-10T18:16:20.075Z,7.20
2022-10-10T18:18:50.983Z,8.00
2022-10-10T18:21:19.899Z,6.35
2022-10-10T18:23:46.939Z,6.88
2022-10-10T18:26:22.524Z,6.95
2022-10-10T18:28:50.018Z,6.68
2022-10-10T18:31:22.429Z,7.00
2022-10-10T18:33:49.055Z,6.65
2022-10-10T18:36:18.917Z,7.45
2022-10-10T18:38:47.438Z,8.88
2022-10-10T18:41:19.585Z,9.02
2022-10-10T18:43:48.106Z,8.20
2022-10-10T18:46:17.781Z,7.78
2022-10-10T18:48:47.093Z,7.67
2022-10-10T18:51:20.969Z,7.22
2022-10-10T18:53:47.844Z,7.88
2022-10-10T18:56:17.535Z,7.18
2022-10-10T18:58:44.023Z,8.73
2022-10-10T19:01:12.831Z,10.27
2022-10-10T19:03:41.188Z,10.50
2022-10-10T19:06:11.020Z,10.05
2022-10-10T19:08:37.686Z,10.70
2022-10-10T19:11:06.220Z,8.93
2022-10-10T19:13:33.800Z,9.80
2022-10-10T19:16:04.681Z,8.93
2022-10-10T19:18:31.215Z,10.77
2022-10-10T19:21:02.497Z,11.50
2022-10-10T19:23:36.522Z,10.80
2022-10-10T19:26:11.973Z,12.00
2022-10-10T19:28:48.729Z,12.00
2022-10-10T19:31:23.635Z,12.18
2022-10-10T19:33:57.406Z,11.65
2022-10-10T19:36:46.584Z,11.63
2022-10-10T19:39:20.166Z,12.13
2022-10-10T19:41:56.749Z,11.80
2022-10-10T19:44:23.316Z,11.93
2022-10-10T19:46:50.003Z,10.77
2022-10-10T19:49:16.513Z,10.32
2022-10-10T19:51:45.943Z,10.32
2022-10-10T19:54:12.716Z,10.40
2022-10-10T19:56:39.180Z,11.15
2022-10-10T19:59:07.127Z,10.93
2022-10-10T20:01:36.880Z,14.77
2022-10-10T20:04:18.232Z,12.75
2022-10-10T20:06:45.244Z,9.77
2022-10-10T20:09:11.612Z,11.88
2022-10-10T20:11:39.050Z,11.35
2022-10-10T20:14:05.737Z,10.95
2022-10-10T20:16:33.775Z,11.75
2022-10-10T20:19:01.918Z,11.43
2022-10-10T20:21:36.964Z,13.48
2022-10-10T20:24:07.603Z,11.90
2022-10-10T20:29:04.274Z,10.68
2022-10-10T20:31:33.752Z,11.80
2022-10-10T20:34:04.499Z,12.98
2022-10-10T20:36:34.664Z,12.00
2022-10-10T20:39:07.447Z,12.95
2022-10-10T20:41:35.851Z,11.43
2022-10-10T20:44:05.186Z,11.27
2022-10-10T20:46:37.662Z,10.50
2022-10-10T20:49:08.216Z,10.95
2022-10-10T20:51:35.988Z,10.45
2022-10-10T20:54:05.706Z,9.88
2022-10-10T20:56:34.822Z,11.77
2022-10-10T20:59:04.260Z,11.88
2022-10-10T21:01:31.222Z,12.38
2022-10-10T21:04:03.270Z,11.55
2022-10-10T21:06:32.618Z,13.93
2022-10-10T21:09:04.306Z,13.07
2022-10-10T21:11:30.817Z,10.90
2022-10-10T21:14:01.742Z,11.02
2022-10-10T21:16:33.930Z,10.63
2022-10-10T21:19:02.808Z,11.63
2022-10-10T21:21:31.665Z,12.63
2022-10-10T21:23:58.617Z,10.75
2022-10-10T21:26:27.876Z,10.52
2022-10-10T21:28:55.808Z,10.95
2022-10-10T21:31:28.292Z,10.55
2022-10-10T21:33:55.660Z,8.88
2022-10-10T21:36:24.194Z,9.60
2022-10-10T21:38:50.648Z,9.43
2022-10-10T21:41:19.680Z,9.90
2022-10-10T21:43:48.136Z,10.63
2022-10-10T21:46:20.386Z,9.43
2022-10-10T21:48:46.783Z,9.15
2022-10-10T21:51:13.367Z,9.05
2022-10-10T21:53:39.674Z,8.60
2022-10-10T21:56:08.469Z,9.15
2022-10-10T21:58:37.118Z,9.43
2022-10-10T22:01:21.689Z,9.15
2022-10-10T22:03:50.626Z,10.05
2022-10-10T22:06:24.020Z,11.93
2022-10-10T22:08:51.894Z,11.15
2022-10-10T22:11:21.818Z,10.57
2022-10-10T22:13:48.759Z,11.93
2022-10-10T22:16:15.269Z,11.13
2022-10-10T22:18:42.099Z,8.70
2022-10-10T22:21:12.694Z,8.77
2022-10-10T22:23:39.205Z,9.65
2022-10-10T22:26:11.139Z,9.27
2022-10-10T22:28:39.725Z,8.52
2022-10-10T22:31:08.607Z,7.65
2022-10-10T22:33:35.299Z,9.30
2022-10-10T22:36:02.065Z,8.35
2022-10-10T22:38:28.833Z,8.80
2022-10-10T22:40:55.316Z,6.20
2022-10-10T22:43:26.108Z,7.65
2022-10-10T22:45:54.620Z,8.80
2022-10-10T22:48:21.067Z,7.88
2022-10-10T22:50:48.389Z,7.68
2022-10-10T22:53:15.088Z,7.88
2022-10-10T22:55:42.581Z,8.90
2022-10-10T22:58:10.569Z,8.77
2022-10-10T23:00:36.984Z,6.82
2022-10-10T23:03:03.696Z,8.18
2022-10-10T23:05:30.033Z,7.60
2022-10-10T23:07:56.528Z,7.65
2022-10-10T23:10:22.971Z,6.30
2022-10-10T23:12:49.336Z,7.20
2022-10-10T23:15:17.085Z,8.27
2022-10-10T23:17:43.451Z,7.43
2022-10-10T23:20:10.167Z,7.32
2022-10-10T23:22:36.619Z,7.13
2022-10-10T23:25:03.682Z,6.95
2022-10-10T23:27:30.146Z,7.65
2022-10-10T23:30:02.077Z,8.38
2022-10-10T23:32:28.624Z,9.85
2022-10-10T23:34:58.384Z,10.82
2022-10-10T23:37:24.756Z,8.67
2022-10-10T23:39:51.099Z,9.35
2022-10-10T23:42:17.470Z,9.73
2022-10-10T23:44:43.872Z,9.43
2022-10-10T23:47:10.434Z,10.35
2022-10-10T23:49:41.507Z,10.13
2022-10-10T23:52:08.062Z,9.60
2022-10-10T23:54:34.455Z,9.07
2022-10-10T23:57:00.846Z,9.48
2022-10-10T23:59:27.247Z,9.32
